createdAt,value
2018-03-25T00:00:30.218Z,17.12
2018-03-25T00:02:57.419Z,17.73
2018-03-25T00:05:24.161Z,18.52
2018-03-25T00:07:50.429Z,16.08
2018-03-25T00:10:16.643Z,16.00
2018-03-25T00:12:43.731Z,15.73
2018-03-25T00:15:10.605Z,15.95
2018-03-25T00:17:38.217Z,14.20
2018-03-25T00:20:05.139Z,15.43
2018-03-25T00:22:31.496Z,16.35
2018-03-25T00:24:58.232Z,16.27
2018-03-25T00:27:25.895Z,15.50
2018-03-25T00:29:52.110Z,17.10
2018-03-25T00:32:18.899Z,15.98
2018-03-25T00:34:46.616Z,17.65
2018-03-25T00:37:13.042Z,23.00
2018-03-25T00:39:39.905Z,19.65
2018-03-25T00:42:06.626Z,17.27
2018-03-25T00:44:33.359Z,15.38
2018-03-25T00:46:59.610Z,15.32
2018-03-25T00:49:26.421Z,16.75
2018-03-25T00:51:52.619Z,14.38
2018-03-25T00:54:20.778Z,14.95
2018-03-25T00:56:47.747Z,13.55
2018-03-25T00:59:14.613Z,15.05
2018-03-25T01:01:41.346Z,13.70
2018-03-25T01:04:08.670Z,15.75
2018-03-25T01:06:36.233Z,18.05
2018-03-25T01:09:03.197Z,16.80
2018-03-25T01:11:29.637Z,15.30
2018-03-25T01:13:56.423Z,17.15
2018-03-25T01:16:23.266Z,15.75
2018-03-25T01:18:50.246Z,15.45
2018-03-25T01:21:16.446Z,14.38
2018-03-25T01:23:42.627Z,15.15
2018-03-25T01:26:09.422Z,14.73
2018-03-25T01:28:37.664Z,15.57
2018-03-25T01:31:04.407Z,15.48
2018-03-25T01:33:31.458Z,15.20
2018-03-25T01:35:59.042Z,14.85
2018-03-25T01:38:33.513Z,13.73
2018-03-25T01:41:01.336Z,13.85
2018-03-25T01:43:29.265Z,14.27
2018-03-25T01:45:56.174Z,13.60
2018-03-25T01:48:22.901Z,15.63
2018-03-25T01:50:49.642Z,14.45
2018-03-25T01:53:15.846Z,14.00
2018-03-25T01:55:43.407Z,13.88
2018-03-25T01:58:10.993Z,13.65
2018-03-25T02:00:38.360Z,15.40
2018-03-25T02:03:05.400Z,12.25
2018-03-25T02:05:33.192Z,12.82
2018-03-25T02:07:59.972Z,13.43
2018-03-25T02:10:27.217Z,13.38
2018-03-25T02:12:54.223Z,12.60
2018-03-25T02:15:21.619Z,13.55
2018-03-25T02:17:48.827Z,12.10
2018-03-25T02:20:16.070Z,12.13
2018-03-25T02:22:43.128Z,12.20
2018-03-25T02:25:09.327Z,12.30
2018-03-25T02:27:36.457Z,13.38
2018-03-25T02:30:03.460Z,12.10
2018-03-25T02:32:29.675Z,12.65
2018-03-25T02:34:57.248Z,12.35
2018-03-25T02:37:23.638Z,13.20
2018-03-25T02:39:50.531Z,13.10
2018-03-25T02:42:17.248Z,11.90
2018-03-25T02:44:43.963Z,12.98
2018-03-25T02:47:10.418Z,12.02
2018-03-25T02:49:37.951Z,12.02
2018-03-25T02:52:04.863Z,12.82
2018-03-25T02:54:32.207Z,12.48
2018-03-25T02:56:58.984Z,13.18
2018-03-25T02:59:26.993Z,11.65
2018-03-25T03:01:53.196Z,12.13
2018-03-25T03:04:19.388Z,12.57
2018-03-25T03:06:47.318Z,11.05
2018-03-25T03:09:14.112Z,12.27
2018-03-25T03:11:41.279Z,11.88
2018-03-25T03:14:08.726Z,12.23
2018-03-25T03:16:36.347Z,12.52
2018-03-25T03:19:02.772Z,12.25
2018-03-25T03:21:30.355Z,11.18
2018-03-25T03:23:57.312Z,13.55
2018-03-25T03:26:26.778Z,15.25
2018-03-25T03:28:53.570Z,13.30
2018-03-25T03:31:20.762Z,12.23
2018-03-25T03:33:48.404Z,13.23
2018-03-25T03:36:15.165Z,12.60
2018-03-25T03:38:43.343Z,11.68
2018-03-25T03:41:10.908Z,10.95
2018-03-25T03:43:37.648Z,10.45
2018-03-25T03:46:04.364Z,11.80
2018-03-25T03:48:31.107Z,15.00
2018-03-25T03:50:57.420Z,14.02
2018-03-25T03:53:24.243Z,12.77
2018-03-25T03:55:51.458Z,14.30
2018-03-25T03:58:18.225Z,13.82
2018-03-25T04:00:44.841Z,12.90
2018-03-25T04:03:12.480Z,13.25
2018-03-25T04:05:39.304Z,12.45
2018-03-25T04:08:06.440Z,12.45
2018-03-25T04:10:32.650Z,12.32
2018-03-25T04:12:59.476Z,12.85
2018-03-25T04:15:26.992Z,11.90
2018-03-25T04:17:53.912Z,13.27
2018-03-25T04:22:54.718Z,14.20
2018-03-25T04:25:21.822Z,13.52
2018-03-25T04:27:49.476Z,12.73
2018-03-25T04:30:16.273Z,12.48
2018-03-25T04:32:43.762Z,13.98
2018-03-25T04:35:10.243Z,13.30
2018-03-25T04:37:37.227Z,13.20
2018-03-25T04:40:03.572Z,12.60
2018-03-25T04:42:29.752Z,12.82
2018-03-25T04:44:56.520Z,13.65
2018-03-25T04:47:24.093Z,13.20
2018-03-25T04:49:51.309Z,12.95
2018-03-25T04:52:18.408Z,16.05
2018-03-25T04:54:45.241Z,13.38
2018-03-25T04:57:11.737Z,14.05
2018-03-25T04:59:38.680Z,15.50
2018-03-25T05:02:05.066Z,13.68
2018-03-25T05:04:32.631Z,14.65
2018-03-25T05:06:58.902Z,13.45
2018-03-25T05:09:25.855Z,16.52
2018-03-25T05:11:53.836Z,12.23
2018-03-25T05:14:20.048Z,14.48
2018-03-25T05:16:46.991Z,13.40
2018-03-25T05:19:14.908Z,12.48
2018-03-25T05:21:42.198Z,13.00
2018-03-25T05:24:09.466Z,13.85
2018-03-25T05:26:36.436Z,14.70
2018-03-25T05:29:02.915Z,13.45
2018-03-25T05:31:30.278Z,14.87
2018-03-25T05:33:57.858Z,17.05
2018-03-25T05:36:25.406Z,14.27
2018-03-25T05:38:52.193Z,16.60
2018-03-25T05:41:18.429Z,16.75
2018-03-25T05:43:44.628Z,19.87
2018-03-25T05:46:11.756Z,21.12
2018-03-25T05:48:38.730Z,20.12
2018-03-25T05:51:05.501Z,18.48
2018-03-25T05:53:32.411Z,24.20
2018-03-25T05:56:00.287Z,23.35
2018-03-25T05:58:26.503Z,19.58
2018-03-25T06:00:52.888Z,20.80
2018-03-25T06:03:19.157Z,20.00
2018-03-25T06:05:48.080Z,17.75
2018-03-25T06:08:15.597Z,18.00
2018-03-25T06:10:43.467Z,16.12
2018-03-25T06:13:11.749Z,18.37
2018-03-25T06:15:38.954Z,16.80
2018-03-25T06:18:05.924Z,16.80
2018-03-25T06:20:33.291Z,15.88
2018-03-25T06:22:59.510Z,16.17
2018-03-25T06:25:26.480Z,16.77
2018-03-25T06:27:53.251Z,17.52
2018-03-25T06:30:20.123Z,16.52
2018-03-25T06:32:47.667Z,15.10
2018-03-25T06:35:14.642Z,15.93
2018-03-25T06:37:41.632Z,17.60
2018-03-25T06:40:07.852Z,16.48
2018-03-25T06:42:34.334Z,15.98
2018-03-25T06:45:01.503Z,17.50
2018-03-25T06:50:01.993Z,16.62
2018-03-25T06:52:28.816Z,16.40
2018-03-25T06:54:56.048Z,15.60
2018-03-25T06:57:23.135Z,15.10
2018-03-25T06:59:49.617Z,16.00
2018-03-25T07:02:17.273Z,16.30
2018-03-25T07:04:44.662Z,17.35
2018-03-25T07:07:12.047Z,16.92
2018-03-25T07:09:39.554Z,18.45
2018-03-25T07:12:07.023Z,17.80
2018-03-25T07:14:33.784Z,18.60
2018-03-25T07:17:00.373Z,17.37
2018-03-25T07:19:27.617Z,17.12
2018-03-25T07:21:54.943Z,19.48
2018-03-25T07:24:22.012Z,20.30
2018-03-25T07:26:48.243Z,20.30
2018-03-25T07:29:15.208Z,21.08
2018-03-25T07:31:42.196Z,20.00
2018-03-25T07:34:08.438Z,21.42
2018-03-25T07:36:34.940Z,19.95
2018-03-25T07:39:02.389Z,19.33
2018-03-25T07:41:30.054Z,19.15
2018-03-25T07:43:57.063Z,19.70
2018-03-25T07:46:24.663Z,19.92
2018-03-25T07:48:50.910Z,20.95
2018-03-25T07:51:17.691Z,18.45
2018-03-25T07:53:44.584Z,17.98
2018-03-25T07:56:10.791Z,17.92
2018-03-25T07:58:37.780Z,18.27
2018-03-25T08:01:04.036Z,17.73
2018-03-25T08:03:30.802Z,19.10
2018-03-25T08:05:58.272Z,18.90
2018-03-25T08:08:24.573Z,18.60
2018-03-25T08:10:51.475Z,17.73
2018-03-25T08:13:17.707Z,18.23
2018-03-25T08:15:44.488Z,18.37
2018-03-25T08:18:11.426Z,18.45
2018-03-25T08:20:38.325Z,19.85
2018-03-25T08:23:04.866Z,18.83
2018-03-25T08:25:32.516Z,20.52
2018-03-25T08:27:59.454Z,20.25
2018-03-25T08:30:26.139Z,20.95
2018-03-25T08:32:52.918Z,18.83
2018-03-25T08:35:19.142Z,18.05
2018-03-25T08:37:45.805Z,18.15
2018-03-25T08:40:14.195Z,18.48
2018-03-25T08:42:40.482Z,19.30
2018-03-25T08:45:07.526Z,18.77
2018-03-25T08:47:34.535Z,19.52
2018-03-25T08:50:00.711Z,19.77
2018-03-25T08:52:27.772Z,20.17
2018-03-25T08:54:54.870Z,18.05
2018-03-25T08:57:21.103Z,18.55
2018-03-25T08:59:47.359Z,18.23
2018-03-25T09:02:13.617Z,19.42
2018-03-25T09:04:40.244Z,17.83
2018-03-25T09:07:07.853Z,19.65
2018-03-25T09:09:34.847Z,19.17
2018-03-25T09:12:01.185Z,19.45
2018-03-25T09:14:27.423Z,21.15
2018-03-25T09:16:53.829Z,20.15
2018-03-25T09:19:21.366Z,20.52
2018-03-25T09:21:49.303Z,20.10
2018-03-25T09:24:15.615Z,20.42
2018-03-25T09:26:41.847Z,20.75
2018-03-25T09:29:09.253Z,19.80
2018-03-25T09:31:36.195Z,19.15
2018-03-25T09:34:03.163Z,20.05
2018-03-25T09:36:29.473Z,18.75
2018-03-25T09:38:56.683Z,19.58
2018-03-25T09:41:23.730Z,17.17
2018-03-25T09:43:50.556Z,17.85
2018-03-25T09:46:16.800Z,17.27
2018-03-25T09:48:44.568Z,19.17
2018-03-25T09:51:10.850Z,19.17
2018-03-25T09:53:37.198Z,20.62
2018-03-25T09:56:04.499Z,20.02
2018-03-25T09:58:32.063Z,20.45
2018-03-25T10:01:04.398Z,19.52
2018-03-25T10:03:31.634Z,18.85
2018-03-25T10:05:58.142Z,20.12
2018-03-25T10:08:24.950Z,20.23
2018-03-25T10:10:51.697Z,19.90
2018-03-25T10:13:17.909Z,19.55
2018-03-25T10:15:44.781Z,19.10
2018-03-25T10:18:11.760Z,20.20
2018-03-25T10:20:38.366Z,19.67
2018-03-25T10:23:05.908Z,19.40
2018-03-25T10:25:33.235Z,19.92
2018-03-25T10:28:01.316Z,20.00
2018-03-25T10:30:27.683Z,20.48
2018-03-25T10:32:53.916Z,21.08
2018-03-25T10:35:21.069Z,19.98
2018-03-25T10:37:47.844Z,20.70
2018-03-25T10:40:14.628Z,21.92
2018-03-25T10:42:42.172Z,20.83
2018-03-25T10:45:08.944Z,20.27
2018-03-25T10:47:36.096Z,21.37
2018-03-25T10:50:02.908Z,20.30
2018-03-25T10:52:29.815Z,21.05
2018-03-25T10:54:56.774Z,21.33
2018-03-25T10:57:23.701Z,22.10
2018-03-25T10:59:49.923Z,22.80
2018-03-25T11:02:16.159Z,21.23
2018-03-25T11:04:42.939Z,21.30
2018-03-25T11:07:10.156Z,21.27
2018-03-25T11:09:37.686Z,21.07
2018-03-25T11:12:04.728Z,21.30
2018-03-25T11:14:30.958Z,22.77
2018-03-25T11:16:58.687Z,20.63
2018-03-25T11:19:24.916Z,19.80
2018-03-25T11:21:51.919Z,21.80
2018-03-25T11:24:18.126Z,21.43
2018-03-25T11:26:44.394Z,20.30
2018-03-25T11:29:10.609Z,21.43
2018-03-25T11:31:36.975Z,21.37
2018-03-25T11:34:04.836Z,21.57
2018-03-25T11:36:32.477Z,20.20
2018-03-25T11:38:58.734Z,20.87
2018-03-25T11:41:26.260Z,19.80
2018-03-25T11:43:52.557Z,21.57
2018-03-25T11:46:18.768Z,19.27
2018-03-25T11:48:45.892Z,19.23
2018-03-25T11:51:12.861Z,21.50
2018-03-25T11:53:39.819Z,20.33
2018-03-25T11:56:06.718Z,20.70
2018-03-25T11:58:33.053Z,17.60
2018-03-25T12:00:59.771Z,18.77
2018-03-25T12:03:26.568Z,17.20
2018-03-25T12:05:53.361Z,18.63
2018-03-25T12:08:20.154Z,18.03
2018-03-25T12:10:47.103Z,19.63
2018-03-25T12:13:15.211Z,18.60
2018-03-25T12:15:41.426Z,17.30
2018-03-25T12:18:08.675Z,18.23
2018-03-25T12:20:34.887Z,19.47
2018-03-25T12:23:01.347Z,17.87
2018-03-25T12:25:28.523Z,18.97
2018-03-25T12:27:54.720Z,17.80
2018-03-25T12:30:21.735Z,19.27
2018-03-25T12:32:47.923Z,18.57
2018-03-25T12:35:14.676Z,18.40
2018-03-25T12:37:43.186Z,19.10
2018-03-25T12:40:09.659Z,18.67
2018-03-25T12:42:36.420Z,18.30
2018-03-25T12:45:03.164Z,18.23
2018-03-25T12:47:31.684Z,17.67
2018-03-25T12:49:58.530Z,19.97
2018-03-25T12:52:26.016Z,16.83
2018-03-25T12:54:52.489Z,18.47
2018-03-25T12:57:20.466Z,18.77
2018-03-25T12:59:48.091Z,19.27
2018-03-25T13:02:14.638Z,18.83
2018-03-25T13:04:42.130Z,18.47
2018-03-25T13:07:08.359Z,17.50
2018-03-25T13:09:35.190Z,17.93
2018-03-25T13:12:02.679Z,20.37
2018-03-25T13:14:29.421Z,18.97
2018-03-25T13:16:56.239Z,18.97
2018-03-25T13:19:22.664Z,17.80
2018-03-25T13:21:50.232Z,18.07
2018-03-25T13:24:16.991Z,18.03
2018-03-25T13:26:43.669Z,19.00
2018-03-25T13:29:10.587Z,17.40
2018-03-25T13:31:37.319Z,15.70
2018-03-25T13:34:03.602Z,16.37
2018-03-25T13:36:31.103Z,18.17
2018-03-25T13:38:57.845Z,18.13
2018-03-25T13:41:24.565Z,19.23
2018-03-25T13:43:52.181Z,16.70
2018-03-25T13:46:18.971Z,16.60
2018-03-25T13:48:45.776Z,15.90
2018-03-25T13:51:14.031Z,16.80
2018-03-25T13:53:40.545Z,16.90
2018-03-25T13:56:08.142Z,16.07
2018-03-25T13:58:35.390Z,15.53
2018-03-25T14:01:01.607Z,16.43
2018-03-25T14:03:27.812Z,17.13
2018-03-25T14:05:54.239Z,16.80
2018-03-25T14:08:21.299Z,16.47
2018-03-25T14:10:47.578Z,16.73
2018-03-25T14:13:14.910Z,14.70
2018-03-25T14:15:42.853Z,16.30
2018-03-25T14:18:09.632Z,16.10
2018-03-25T14:20:37.167Z,15.97
2018-03-25T14:23:03.938Z,15.23
2018-03-25T14:25:31.098Z,15.70
2018-03-25T14:27:58.668Z,14.70
2018-03-25T14:30:25.617Z,15.27
2018-03-25T14:32:52.721Z,14.57
2018-03-25T14:35:20.276Z,15.43
2018-03-25T14:37:47.544Z,14.80
2018-03-25T14:40:15.780Z,14.77
2018-03-25T14:42:42.000Z,15.00
2018-03-25T14:45:08.462Z,16.07
2018-03-25T14:47:35.115Z,17.13
2018-03-25T14:50:01.640Z,15.23
2018-03-25T14:52:29.292Z,15.73
2018-03-25T14:54:55.751Z,14.57
2018-03-25T14:57:22.915Z,15.57
2018-03-25T14:59:49.647Z,14.97
2018-03-25T15:02:16.361Z,15.67
2018-03-25T15:04:42.659Z,15.37
2018-03-25T15:07:08.914Z,15.50
2018-03-25T15:09:36.020Z,16.60
2018-03-25T15:12:03.091Z,15.97
2018-03-25T15:14:29.943Z,16.90
2018-03-25T15:16:57.195Z,15.50
2018-03-25T15:19:24.733Z,16.20
2018-03-25T15:21:51.452Z,15.20
2018-03-25T15:24:17.788Z,16.10
2018-03-25T15:26:44.651Z,15.27
2018-03-25T15:29:11.427Z,15.80
2018-03-25T15:31:38.622Z,16.07
2018-03-25T15:34:05.640Z,16.43
2018-03-25T15:36:32.725Z,15.00
2018-03-25T15:38:59.616Z,16.57
2018-03-25T15:41:26.591Z,14.43
2018-03-25T15:43:52.942Z,14.13
2018-03-25T15:46:19.158Z,16.20
2018-03-25T15:48:45.404Z,15.77
2018-03-25T15:51:11.631Z,16.90
2018-03-25T15:53:38.398Z,16.10
2018-03-25T15:56:04.754Z,18.47
2018-03-25T15:58:31.697Z,29.43
2018-03-25T16:00:58.669Z,72.63
2018-03-25T16:03:24.914Z,22.00
2018-03-25T16:05:51.137Z,24.50
2018-03-25T16:08:17.580Z,17.80
2018-03-25T16:10:43.802Z,18.60
2018-03-25T16:13:10.559Z,20.47
2018-03-25T16:15:36.759Z,32.57
2018-03-25T16:18:03.043Z,21.07
2018-03-25T16:20:30.144Z,15.80
2018-03-25T16:22:56.436Z,16.12
2018-03-25T16:25:23.201Z,16.60
2018-03-25T16:27:49.956Z,17.00
2018-03-25T16:30:16.647Z,15.63
2018-03-25T16:32:44.805Z,15.10
2018-03-25T16:35:11.087Z,16.57
2018-03-25T16:37:38.365Z,13.90
2018-03-25T16:40:04.636Z,14.25
2018-03-25T16:42:31.630Z,14.55
2018-03-25T16:44:58.765Z,13.70
2018-03-25T16:47:25.534Z,13.45
2018-03-25T16:49:52.277Z,14.05
2018-03-25T16:52:19.391Z,14.43
2018-03-25T16:54:47.136Z,13.45
2018-03-25T16:57:13.382Z,12.82
2018-03-25T16:59:40.148Z,14.40
2018-03-25T17:02:06.942Z,13.93
2018-03-25T17:04:33.327Z,13.82
2018-03-25T17:07:01.082Z,12.55
2018-03-25T17:09:29.391Z,13.13
2018-03-25T17:11:56.441Z,11.85
2018-03-25T17:14:24.011Z,13.82
2018-03-25T17:16:50.978Z,12.55
2018-03-25T17:19:17.216Z,13.20
2018-03-25T17:21:44.977Z,12.60
2018-03-25T17:24:11.769Z,11.40
2018-03-25T17:26:38.004Z,12.30
2018-03-25T17:29:05.077Z,16.85
2018-03-25T17:31:31.946Z,19.10
2018-03-25T17:33:58.765Z,21.42
2018-03-25T17:36:25.008Z,19.85
2018-03-25T17:38:51.449Z,16.17
2018-03-25T17:41:18.243Z,18.40
2018-03-25T17:43:46.466Z,16.90
2018-03-25T17:46:12.703Z,17.90
2018-03-25T17:48:39.300Z,20.55
2018-03-25T17:51:05.692Z,17.70
2018-03-25T17:53:31.927Z,20.67
2018-03-25T17:55:58.506Z,25.75
2018-03-25T17:58:25.212Z,22.10
2018-03-25T18:00:52.264Z,19.60
2018-03-25T18:03:19.219Z,19.65
2018-03-25T18:05:47.163Z,22.13
2018-03-25T18:08:13.738Z,18.87
2018-03-25T18:10:40.575Z,19.00
2018-03-25T18:13:07.776Z,19.17
2018-03-25T18:15:34.048Z,17.40
2018-03-25T18:18:01.007Z,14.43
2018-03-25T18:20:27.281Z,14.50
2018-03-25T18:22:55.170Z,14.40
2018-03-25T18:25:21.894Z,15.75
2018-03-25T18:27:48.909Z,16.35
2018-03-25T18:30:16.057Z,16.17
2018-03-25T18:32:42.447Z,16.75
2018-03-25T18:35:09.896Z,16.98
2018-03-25T18:37:38.289Z,15.95
2018-03-25T18:40:05.596Z,15.60
2018-03-25T18:42:33.082Z,16.25
2018-03-25T18:45:01.089Z,17.40
2018-03-25T18:47:27.435Z,20.00
2018-03-25T18:49:54.575Z,17.25
2018-03-25T18:52:22.543Z,18.05
2018-03-25T18:54:49.765Z,19.30
2018-03-25T18:57:16.772Z,22.35
2018-03-25T18:59:43.459Z,20.90
2018-03-25T19:02:10.342Z,18.30
2018-03-25T19:04:36.901Z,17.65
2018-03-25T19:07:05.002Z,18.05
2018-03-25T19:09:31.969Z,17.05
2018-03-25T19:11:58.526Z,17.87
2018-03-25T19:14:26.170Z,18.90
2018-03-25T19:16:52.644Z,18.90
2018-03-25T19:19:20.147Z,19.30
2018-03-25T19:21:47.173Z,19.02
2018-03-25T19:24:15.634Z,17.90
2018-03-25T19:26:42.830Z,17.23
2018-03-25T19:29:09.213Z,18.20
2018-03-25T19:31:36.107Z,17.33
2018-03-25T19:34:02.499Z,16.05
2018-03-25T19:36:29.535Z,17.83
2018-03-25T19:38:56.544Z,16.85
2018-03-25T19:41:23.118Z,18.30
2018-03-25T19:43:50.292Z,17.02
2018-03-25T19:46:17.688Z,17.70
2018-03-25T19:48:45.208Z,18.10
2018-03-25T19:51:11.791Z,15.52
2018-03-25T19:53:39.447Z,14.82
2018-03-25T19:56:06.376Z,14.70
2018-03-25T19:58:34.159Z,14.50
2018-03-25T20:01:00.476Z,16.05
2018-03-25T20:03:27.264Z,14.93
2018-03-25T20:05:53.691Z,15.82
2018-03-25T20:08:20.092Z,20.25
2018-03-25T20:10:46.794Z,19.85
2018-03-25T20:13:14.583Z,17.02
2018-03-25T20:15:41.466Z,16.85
2018-03-25T20:18:08.298Z,12.45
2018-03-25T20:20:35.848Z,13.52
2018-03-25T20:23:04.273Z,13.70
2018-03-25T20:25:31.455Z,14.87
2018-03-25T20:27:58.599Z,16.02
2018-03-25T20:30:25.031Z,14.70
2018-03-25T20:32:51.333Z,13.32
2018-03-25T20:35:18.772Z,12.73
2018-03-25T20:37:45.606Z,13.95
2018-03-25T20:40:12.847Z,13.68
2018-03-25T20:42:40.188Z,14.35
2018-03-25T20:45:07.490Z,15.68
2018-03-25T20:47:35.076Z,14.35
2018-03-25T20:50:01.844Z,16.58
2018-03-25T20:52:28.062Z,14.93
2018-03-25T20:54:54.851Z,15.00
2018-03-25T20:57:21.145Z,15.05
2018-03-25T20:59:48.632Z,15.52
2018-03-25T21:02:15.654Z,13.60
2018-03-25T21:04:42.366Z,13.70
2018-03-25T21:07:08.983Z,15.00
2018-03-25T21:09:35.715Z,15.18
2018-03-25T21:12:02.779Z,17.77
2018-03-25T21:14:29.641Z,17.27
2018-03-25T21:16:56.262Z,15.82
2018-03-25T21:19:22.490Z,17.40
2018-03-25T21:21:48.959Z,14.73
2018-03-25T21:24:15.958Z,17.12
2018-03-25T21:26:42.204Z,15.57
2018-03-25T21:29:10.312Z,16.10
2018-03-25T21:31:38.579Z,15.45
2018-03-25T21:34:04.778Z,15.93
2018-03-25T21:36:30.990Z,15.65
2018-03-25T21:38:57.735Z,16.25
2018-03-25T21:41:24.865Z,19.42
2018-03-25T21:43:51.790Z,17.60
2018-03-25T21:46:18.455Z,17.87
2018-03-25T21:48:45.502Z,16.17
2018-03-25T21:51:12.443Z,16.85
2018-03-25T21:53:39.907Z,23.08
2018-03-25T21:56:06.137Z,19.60
2018-03-25T21:58:32.358Z,18.50
2018-03-25T22:00:59.339Z,19.48
2018-03-25T22:03:25.556Z,18.15
2018-03-25T22:05:51.969Z,19.37
2018-03-25T22:08:19.588Z,23.35
2018-03-25T22:10:46.577Z,19.65
2018-03-25T22:13:12.792Z,17.15
2018-03-25T22:15:40.014Z,18.20
2018-03-25T22:18:08.254Z,17.40
2018-03-25T22:20:34.488Z,16.92
2018-03-25T22:23:00.732Z,16.95
2018-03-25T22:25:28.323Z,16.20
2018-03-25T22:27:55.291Z,16.83
2018-03-25T22:30:22.156Z,14.25
2018-03-25T22:32:48.384Z,15.82
2018-03-25T22:35:15.378Z,15.75
2018-03-25T22:37:41.587Z,15.98
2018-03-25T22:40:08.770Z,15.65
2018-03-25T22:42:36.324Z,16.37
2018-03-25T22:45:03.890Z,16.05
2018-03-25T22:47:31.743Z,16.20
2018-03-25T22:49:59.653Z,16.50
2018-03-25T22:52:26.825Z,16.17
2018-03-25T22:54:54.337Z,14.93
2018-03-25T22:57:20.611Z,15.10
2018-03-25T22:59:46.820Z,15.95
2018-03-25T23:02:13.026Z,15.00
2018-03-25T23:04:39.256Z,17.55
2018-03-25T23:07:06.147Z,14.77
2018-03-25T23:09:33.729Z,14.05
2018-03-25T23:11:59.942Z,14.73
2018-03-25T23:14:26.771Z,17.30
2018-03-25T23:16:53.002Z,16.30
2018-03-25T23:19:19.183Z,17.17
2018-03-25T23:21:45.732Z,16.87
2018-03-25T23:24:11.956Z,15.27
2018-03-25T23:26:38.943Z,13.60
2018-03-25T23:29:06.633Z,15.52
2018-03-25T23:31:33.818Z,14.43
2018-03-25T23:34:00.506Z,16.75
2018-03-25T23:36:28.111Z,15.23
2018-03-25T23:38:54.965Z,15.05
2018-03-25T23:41:21.777Z,16.08
2018-03-25T23:43:49.372Z,14.50
2018-03-25T23:46:15.808Z,14.75
2018-03-25T23:48:42.806Z,16.00
2018-03-25T23:51:10.412Z,17.02
2018-03-25T23:53:36.644Z,16.15
2018-03-25T23:56:03.610Z,17.15
2018-03-25T23:58:30.379Z,16.17
